createdAt,value
2018-07-25T00:02:08.331Z,20.30
2018-07-25T00:04:39.637Z,20.40
2018-07-25T00:07:09.947Z,20.50
2018-07-25T00:09:40.301Z,20.60
2018-07-25T00:12:10.720Z,20.70
2018-07-25T00:14:41.060Z,20.70
2018-07-25T00:17:11.296Z,20.70
2018-07-25T00:19:41.973Z,20.60
2018-07-25T00:22:12.359Z,20.40
2018-07-25T00:24:42.655Z,20.30
2018-07-25T00:27:12.920Z,20.20
2018-07-25T00:29:43.320Z,20.00
2018-07-25T00:32:13.521Z,19.90
2018-07-25T00:34:43.795Z,19.80
2018-07-25T00:37:14.040Z,19.70
2018-07-25T00:39:44.718Z,19.60
2018-07-25T00:42:14.932Z,19.50
2018-07-25T00:44:45.200Z,19.40
2018-07-25T00:47:15.481Z,19.30
2018-07-25T00:49:45.707Z,19.20
2018-07-25T00:57:15.478Z,19.00
2018-07-25T00:59:45.756Z,18.90
2018-07-25T01:02:16.097Z,18.90
2018-07-25T01:04:46.274Z,18.80
2018-07-25T01:07:16.525Z,18.70
2018-07-25T01:09:47.307Z,18.60
2018-07-25T01:12:17.623Z,18.60
2018-07-25T01:14:47.873Z,18.60
2018-07-25T01:17:18.216Z,18.50
2018-07-25T01:19:48.612Z,18.50
2018-07-25T01:22:18.832Z,18.50
2018-07-25T01:24:48.980Z,18.50
2018-07-25T01:27:19.353Z,18.40
2018-07-25T01:29:49.627Z,18.40
2018-07-25T01:32:20.045Z,18.40
2018-07-25T01:34:50.423Z,18.30
2018-07-25T01:37:20.811Z,18.30
2018-07-25T01:39:52.418Z,18.30
2018-07-25T01:42:22.948Z,18.30
2018-07-25T01:44:53.221Z,18.20
2018-07-25T01:47:23.555Z,18.20
2018-07-25T01:49:53.852Z,18.20
2018-07-25T01:52:25.132Z,18.20
2018-07-25T01:54:55.614Z,18.10
2018-07-25T01:57:26.321Z,18.10
2018-07-25T01:59:57.923Z,18.00
2018-07-25T02:02:29.416Z,18.00
2018-07-25T02:04:59.703Z,17.90
2018-07-25T02:07:30.078Z,17.90
2018-07-25T02:10:00.902Z,17.90
2018-07-25T02:12:31.221Z,17.90
2018-07-25T02:15:01.488Z,17.90
2018-07-25T02:17:31.775Z,17.80
2018-07-25T02:20:02.016Z,17.80
2018-07-25T02:22:32.295Z,17.80
2018-07-25T02:25:02.529Z,17.70
2018-07-25T02:27:32.845Z,17.70
2018-07-25T02:30:03.074Z,17.60
2018-07-25T02:32:33.371Z,17.60
2018-07-25T02:35:03.564Z,17.60
2018-07-25T02:37:33.966Z,17.60
2018-07-25T02:40:04.267Z,17.60
2018-07-25T02:42:34.527Z,17.60
2018-07-25T02:45:04.734Z,17.50
2018-07-25T02:47:34.875Z,17.50
2018-07-25T02:50:05.728Z,17.50
2018-07-25T02:52:35.928Z,17.50
2018-07-25T02:55:06.552Z,17.50
2018-07-25T02:57:36.713Z,17.40
2018-07-25T03:00:07.843Z,17.40
2018-07-25T03:02:37.978Z,17.40
2018-07-25T03:05:08.295Z,17.40
2018-07-25T03:07:38.500Z,17.40
2018-07-25T03:11:33.049Z,17.40
2018-07-25T03:14:03.175Z,17.30
2018-07-25T03:16:33.949Z,17.30
2018-07-25T03:19:04.080Z,17.30
2018-07-25T03:21:34.274Z,17.20
2018-07-25T03:24:04.708Z,17.30
2018-07-25T03:26:34.937Z,17.30
2018-07-25T03:29:05.191Z,17.30
2018-07-25T03:34:05.133Z,17.20
2018-07-25T03:36:35.261Z,17.20
2018-07-25T03:39:06.892Z,17.20
2018-07-25T03:41:37.294Z,17.20
2018-07-25T03:44:07.367Z,17.20
2018-07-25T03:46:37.419Z,17.10
2018-07-25T03:49:07.441Z,17.10
2018-07-25T03:51:37.536Z,17.10
2018-07-25T03:54:07.702Z,17.00
2018-07-25T03:56:37.771Z,17.10
2018-07-25T03:59:07.884Z,17.00
2018-07-25T04:01:38.000Z,17.10
2018-07-25T04:04:08.046Z,17.00
2018-07-25T04:06:38.155Z,17.00
2018-07-25T04:09:10.296Z,17.00
2018-07-25T04:11:40.385Z,17.00
2018-07-25T04:14:10.432Z,17.00
2018-07-25T04:16:40.994Z,17.00
2018-07-25T04:19:11.085Z,17.00
2018-07-25T04:21:41.212Z,17.00
2018-07-25T04:24:11.310Z,17.00
2018-07-25T04:26:41.543Z,17.10
2018-07-25T04:48:42.397Z,17.10
2018-07-25T04:51:12.411Z,17.10
2018-07-25T04:53:42.408Z,17.40
2018-07-25T04:56:12.600Z,17.50
2018-07-25T05:01:12.225Z,17.70
2018-07-25T05:03:42.257Z,17.80
2018-07-25T05:06:12.282Z,17.90
2018-07-25T05:11:12.526Z,18.20
2018-07-25T05:13:42.501Z,18.30
2018-07-25T05:16:12.559Z,18.40
2018-07-25T05:18:42.575Z,18.60
2018-07-25T05:21:12.578Z,18.70
2018-07-25T05:23:42.585Z,18.90
2018-07-25T05:26:12.634Z,19.00
2018-07-25T05:28:42.699Z,19.10
2018-07-25T05:31:12.725Z,19.20
2018-07-25T05:33:42.791Z,19.40
2018-07-25T05:36:12.898Z,19.50
2018-07-25T05:38:44.974Z,19.60
2018-07-25T05:41:15.172Z,19.80
2018-07-25T05:43:45.345Z,19.90
2018-07-25T05:46:15.387Z,20.10
2018-07-25T05:48:45.504Z,20.20
2018-07-25T05:51:15.567Z,20.30
2018-07-25T05:53:46.448Z,20.50
2018-07-25T05:56:16.610Z,20.60
2018-07-25T05:58:47.038Z,20.70
2018-07-25T06:01:17.161Z,20.90
2018-07-25T06:03:47.250Z,21.00
2018-07-25T06:06:17.383Z,21.20
2018-07-25T06:08:47.492Z,21.30
2018-07-25T06:11:17.589Z,21.50
2018-07-25T06:13:47.747Z,21.60
2018-07-25T06:16:17.981Z,21.70
2018-07-25T06:21:17.790Z,22.00
2018-07-25T06:23:47.905Z,22.10
2018-07-25T06:26:17.922Z,22.20
2018-07-25T06:28:48.060Z,22.40
2018-07-25T06:31:18.218Z,22.50
2018-07-25T06:33:48.304Z,22.70
2018-07-25T06:36:18.416Z,22.80
2018-07-25T06:38:48.532Z,23.00
2018-07-25T06:41:18.617Z,23.20
2018-07-25T06:43:48.742Z,23.30
2018-07-25T06:46:19.013Z,23.50
2018-07-25T06:48:49.122Z,23.70
2018-07-25T06:51:19.158Z,23.90
2018-07-25T06:53:49.252Z,24.20
2018-07-25T06:56:19.316Z,24.40
2018-07-25T06:58:49.385Z,24.60
2018-07-25T07:01:19.428Z,24.80
2018-07-25T07:03:49.635Z,25.00
2018-07-25T07:06:19.747Z,25.10
2018-07-25T07:08:49.856Z,25.20
2018-07-25T07:13:50.246Z,25.40
2018-07-25T07:16:20.393Z,25.60
2018-07-25T07:18:50.514Z,25.70
2018-07-25T07:21:20.610Z,25.90
2018-07-25T07:23:50.681Z,26.00
2018-07-25T07:26:20.798Z,26.20
2018-07-25T07:28:50.902Z,26.30
2018-07-25T07:31:21.047Z,26.40
2018-07-25T07:33:51.109Z,26.60
2018-07-25T07:36:21.136Z,26.70
2018-07-25T07:38:51.250Z,26.70
2018-07-25T07:41:21.383Z,26.90
2018-07-25T07:43:51.455Z,26.90
2018-07-25T07:46:21.558Z,27.00
2018-07-25T07:48:51.682Z,27.10
2018-07-25T07:51:21.731Z,27.20
2018-07-25T07:58:51.160Z,27.30
2018-07-25T08:01:21.251Z,27.40
2018-07-25T08:03:51.390Z,27.30
2018-07-25T08:06:21.496Z,27.50
2018-07-25T08:08:51.686Z,27.50
2018-07-25T08:13:51.763Z,27.60
2018-07-25T08:16:21.811Z,27.80
2018-07-25T08:18:51.878Z,27.80
2018-07-25T08:21:21.898Z,27.90
2018-07-25T08:23:51.991Z,28.00
2018-07-25T08:26:22.084Z,28.10
2018-07-25T08:28:52.174Z,28.20
2018-07-25T08:36:21.451Z,28.30
2018-07-25T08:38:51.565Z,28.40
2018-07-25T08:41:21.714Z,28.50
2018-07-25T08:43:51.842Z,28.40
2018-07-25T08:46:21.939Z,28.60
2018-07-25T08:48:52.034Z,28.60
2018-07-25T08:53:51.820Z,28.80
2018-07-25T08:56:21.984Z,28.80
2018-07-25T09:01:22.066Z,29.00
2018-07-25T09:03:52.159Z,29.00
2018-07-25T09:11:28.415Z,29.20
2018-07-25T09:13:58.970Z,29.20
2018-07-25T09:16:29.082Z,29.30
2018-07-25T09:18:59.217Z,29.40
2018-07-25T09:21:29.911Z,29.50
2018-07-25T09:23:59.965Z,29.70
2018-07-25T09:26:30.070Z,29.80
2018-07-25T09:29:00.272Z,29.70
2018-07-25T09:31:30.463Z,29.80
2018-07-25T09:36:30.223Z,29.80
2018-07-25T09:39:00.298Z,29.80
2018-07-25T09:41:30.478Z,30.00
2018-07-25T09:44:00.625Z,30.00
2018-07-25T09:46:30.755Z,29.70
2018-07-25T09:49:00.849Z,29.80
2018-07-25T09:51:30.988Z,30.00
2018-07-25T09:54:01.083Z,30.00
2018-07-25T09:56:31.779Z,30.20
2018-07-25T09:59:02.192Z,30.20
2018-07-25T10:01:32.367Z,30.20
2018-07-25T10:04:02.491Z,30.00
2018-07-25T10:06:32.682Z,30.10
2018-07-25T10:09:02.913Z,29.90
2018-07-25T10:11:33.090Z,29.50
2018-07-25T10:14:03.175Z,29.20
2018-07-25T10:16:33.515Z,28.90
2018-07-25T10:19:03.749Z,28.90
2018-07-25T10:21:33.850Z,28.50
2018-07-25T10:24:03.960Z,28.60
2018-07-25T10:29:03.815Z,28.70
2018-07-25T10:31:33.948Z,28.70
2018-07-25T10:34:04.093Z,28.70
2018-07-25T10:36:34.320Z,28.90
2018-07-25T10:39:06.624Z,29.10
2018-07-25T10:41:36.747Z,29.00
2018-07-25T10:44:08.405Z,29.20
2018-07-25T10:46:43.038Z,29.40
2018-07-25T10:49:13.090Z,29.60
2018-07-25T10:51:43.194Z,29.50
2018-07-25T10:54:13.255Z,29.60
2018-07-25T10:56:43.394Z,29.50
2018-07-25T10:59:13.531Z,29.40
2018-07-25T11:01:43.687Z,29.10
2018-07-25T11:06:43.530Z,29.10
2018-07-25T11:11:43.368Z,28.70
2018-07-25T11:14:13.447Z,28.90
2018-07-25T11:16:43.552Z,28.90
2018-07-25T11:19:13.747Z,28.80
2018-07-25T11:21:43.820Z,28.80
2018-07-25T11:24:14.042Z,29.10
2018-07-25T11:26:44.153Z,29.10
2018-07-25T11:29:14.701Z,29.30
2018-07-25T11:31:44.962Z,29.40
2018-07-25T11:34:19.913Z,29.60
2018-07-25T11:36:50.086Z,29.80
2018-07-25T11:39:20.163Z,30.00
2018-07-25T11:41:50.403Z,30.10
2018-07-25T11:44:20.540Z,30.20
2018-07-25T11:46:50.721Z,30.10
2018-07-25T11:49:21.174Z,30.20
2018-07-25T11:51:51.935Z,30.00
2018-07-25T11:54:22.385Z,29.80
2018-07-25T11:56:52.554Z,29.70
2018-07-25T11:59:23.306Z,29.80
2018-07-25T12:01:53.523Z,29.90
2018-07-25T12:04:24.052Z,30.10
2018-07-25T12:06:54.562Z,30.20
2018-07-25T12:09:24.883Z,30.20
2018-07-25T12:11:55.301Z,30.10
2018-07-25T12:14:25.775Z,30.10
2018-07-25T12:19:26.371Z,30.20
2018-07-25T12:21:56.948Z,30.10
2018-07-25T12:24:28.297Z,30.30
2018-07-25T12:26:59.430Z,30.30
2018-07-25T12:29:29.573Z,30.30
2018-07-25T12:32:00.269Z,30.20
2018-07-25T12:34:30.530Z,30.20
2018-07-25T12:37:00.856Z,30.40
2018-07-25T12:39:30.958Z,30.40
2018-07-25T12:42:01.145Z,30.30
2018-07-25T12:44:32.030Z,30.20
2018-07-25T12:47:02.436Z,30.10
2018-07-25T12:49:32.767Z,30.00
2018-07-25T12:52:03.201Z,29.90
2018-07-25T12:54:33.564Z,29.80
2018-07-25T12:57:03.876Z,29.80
2018-07-25T12:59:34.214Z,29.60
2018-07-25T13:02:04.597Z,29.60
2018-07-25T13:04:34.880Z,29.60
2018-07-25T13:07:05.242Z,29.70
2018-07-25T13:09:35.714Z,29.70
2018-07-25T13:12:06.065Z,29.80
2018-07-25T13:14:36.224Z,29.70
2018-07-25T13:17:06.556Z,29.70
2018-07-25T13:19:37.442Z,29.60
2018-07-25T13:22:11.710Z,29.70
2018-07-25T13:24:43.416Z,29.60
2018-07-25T13:27:13.584Z,29.60
2018-07-25T13:29:43.728Z,29.60
2018-07-25T13:32:13.900Z,29.60
2018-07-25T13:34:44.072Z,29.70
2018-07-25T13:37:14.163Z,29.80
2018-07-25T13:39:44.695Z,29.90
2018-07-25T13:42:15.563Z,30.00
2018-07-25T13:44:45.887Z,30.10
2018-07-25T13:49:47.857Z,30.40
2018-07-25T13:52:18.172Z,30.50
2018-07-25T13:54:48.444Z,30.60
2018-07-25T13:57:18.582Z,30.70
2018-07-25T13:59:48.916Z,30.80
2018-07-25T14:04:49.445Z,31.00
2018-07-25T14:07:19.627Z,31.00
2018-07-25T14:09:50.526Z,31.00
2018-07-25T14:12:20.853Z,31.00
2018-07-25T14:14:52.704Z,30.90
2018-07-25T14:17:22.976Z,31.00
2018-07-25T14:19:53.916Z,31.10
2018-07-25T14:22:26.323Z,31.20
2018-07-25T14:24:56.859Z,31.40
2018-07-25T14:27:27.156Z,31.50
2018-07-25T14:29:57.320Z,31.70
2018-07-25T14:32:27.542Z,31.70
2018-07-25T14:34:57.648Z,31.90
2018-07-25T14:37:27.871Z,31.70
2018-07-25T14:42:27.954Z,31.70
2018-07-25T14:44:58.122Z,31.30
2018-07-25T14:47:29.084Z,31.50
2018-07-25T14:49:59.905Z,31.30
2018-07-25T14:52:30.230Z,31.30
2018-07-25T14:55:00.397Z,31.20
2018-07-25T14:57:30.579Z,31.00
2018-07-25T15:00:00.910Z,30.90
2018-07-25T15:02:31.082Z,31.00
2018-07-25T15:05:01.258Z,31.00
2018-07-25T15:07:31.482Z,31.00
2018-07-25T15:10:01.656Z,30.90
2018-07-25T15:12:36.807Z,30.90
2018-07-25T15:15:07.213Z,30.90
2018-07-25T15:20:09.481Z,30.90
2018-07-25T15:22:40.302Z,31.00
2018-07-25T15:25:10.663Z,31.00
2018-07-25T15:27:40.895Z,31.00
2018-07-25T15:30:12.271Z,30.80
2018-07-25T15:32:42.537Z,30.60
2018-07-25T15:35:12.708Z,30.70
2018-07-25T15:37:43.044Z,30.80
2018-07-25T15:40:13.431Z,30.80
2018-07-25T15:42:43.568Z,30.80
2018-07-25T15:45:13.758Z,30.80
2018-07-25T15:47:43.923Z,30.90
2018-07-25T15:50:14.216Z,30.90
2018-07-25T15:52:44.392Z,30.90
2018-07-25T15:55:14.509Z,30.90
2018-07-25T15:57:44.730Z,30.80
2018-07-25T16:00:14.893Z,30.70
2018-07-25T16:02:45.173Z,30.90
2018-07-25T16:05:15.380Z,30.90
2018-07-25T16:07:45.465Z,30.60
2018-07-25T16:10:15.652Z,30.50
2018-07-25T16:15:15.538Z,30.60
2018-07-25T16:17:45.630Z,30.60
2018-07-25T16:20:15.783Z,30.50
2018-07-25T16:22:45.902Z,30.60
2018-07-25T16:25:15.966Z,30.60
2018-07-25T16:27:46.096Z,30.50
2018-07-25T16:30:16.295Z,30.40
2018-07-25T16:32:46.355Z,30.40
2018-07-25T16:35:16.446Z,30.50
2018-07-25T16:37:46.534Z,30.40
2018-07-25T16:40:16.707Z,30.30
2018-07-25T16:42:46.763Z,30.30
2018-07-25T16:45:17.294Z,30.20
2018-07-25T16:47:47.376Z,30.20
2018-07-25T16:50:17.449Z,30.20
2018-07-25T16:52:47.590Z,30.20
2018-07-25T16:55:17.901Z,30.20
2018-07-25T16:57:48.297Z,30.20
2018-07-25T17:02:58.998Z,30.10
2018-07-25T17:05:29.272Z,30.10
2018-07-25T17:07:59.355Z,30.10
2018-07-25T17:10:29.515Z,30.00
2018-07-25T17:12:59.703Z,30.00
2018-07-25T17:15:29.828Z,30.00
2018-07-25T17:17:59.945Z,29.90
2018-07-25T17:20:30.155Z,29.80
2018-07-25T17:23:00.229Z,29.80
2018-07-25T17:25:30.315Z,29.80
2018-07-25T17:28:00.394Z,29.80
2018-07-25T17:30:30.475Z,29.70
2018-07-25T17:33:00.575Z,29.80
2018-07-25T17:35:30.724Z,29.70
2018-07-25T17:38:00.833Z,29.80
2018-07-25T17:40:31.114Z,29.70
2018-07-25T17:43:01.646Z,29.60
2018-07-25T17:45:31.891Z,29.50
2018-07-25T17:48:02.122Z,29.40
2018-07-25T17:53:01.966Z,29.30
2018-07-25T17:55:32.385Z,29.20
2018-07-25T17:58:02.690Z,29.10
2018-07-25T18:00:32.751Z,29.00
2018-07-25T18:03:03.076Z,29.00
2018-07-25T18:08:03.031Z,28.80
2018-07-25T18:10:33.073Z,28.70
2018-07-25T18:13:08.416Z,28.60
2018-07-25T18:15:38.515Z,28.50
2018-07-25T18:18:08.855Z,28.40
2018-07-25T18:20:39.017Z,28.30
2018-07-25T18:23:09.317Z,28.10
2018-07-25T18:25:39.718Z,28.00
2018-07-25T18:30:39.590Z,27.90
2018-07-25T18:33:09.852Z,27.80
2018-07-25T18:35:40.005Z,27.60
2018-07-25T18:40:39.997Z,27.40
2018-07-25T18:43:10.168Z,27.30
2018-07-25T18:45:40.279Z,27.20
2018-07-25T18:48:10.496Z,27.10
2018-07-25T18:50:40.619Z,27.00
2018-07-25T18:53:10.765Z,27.00
2018-07-25T18:58:10.637Z,26.90
2018-07-25T19:00:43.469Z,26.90
2018-07-25T19:03:14.214Z,26.70
2018-07-25T19:05:44.284Z,26.80
2018-07-25T19:08:14.402Z,26.70
2018-07-25T19:10:44.509Z,26.60
2018-07-25T19:13:19.694Z,26.40
2018-07-25T19:15:49.767Z,26.30
2018-07-25T19:18:19.925Z,26.20
2018-07-25T19:20:50.089Z,26.20
2018-07-25T19:23:20.382Z,26.10
2018-07-25T19:25:50.494Z,26.00
2018-07-25T19:28:20.971Z,26.00
2018-07-25T19:30:51.013Z,25.90
2018-07-25T19:33:21.293Z,25.80
2018-07-25T19:35:51.388Z,25.80
2018-07-25T19:38:21.659Z,25.70
2018-07-25T19:40:51.934Z,25.70
2018-07-25T19:45:52.242Z,25.60
2018-07-25T19:48:22.590Z,25.50
2018-07-25T19:50:52.706Z,25.40
2018-07-25T19:53:22.864Z,25.20
2018-07-25T19:55:52.928Z,25.00
2018-07-25T19:58:23.017Z,24.80
2018-07-25T20:00:53.205Z,24.60
2018-07-25T20:03:23.654Z,24.40
2018-07-25T20:08:23.988Z,24.10
2018-07-25T20:13:23.862Z,23.90
2018-07-25T20:15:59.345Z,23.70
2018-07-25T20:18:30.398Z,23.60
2018-07-25T20:21:00.585Z,23.40
2018-07-25T20:23:30.774Z,23.30
2018-07-25T20:26:00.850Z,23.30
2018-07-25T20:28:30.955Z,23.10
2018-07-25T20:31:01.880Z,23.10
2018-07-25T20:33:31.990Z,23.00
2018-07-25T20:36:02.134Z,22.90
2018-07-25T20:38:32.242Z,22.70
2018-07-25T20:41:02.390Z,22.70
2018-07-25T20:43:32.537Z,22.50
2018-07-25T20:46:02.633Z,22.50
2018-07-25T20:48:34.282Z,22.40
2018-07-25T20:51:04.736Z,22.40
2018-07-25T20:53:35.070Z,22.30
2018-07-25T20:56:05.442Z,22.30
2018-07-25T20:58:35.819Z,22.20
2018-07-25T21:01:06.261Z,22.10
2018-07-25T21:03:36.627Z,22.00
2018-07-25T21:06:06.945Z,22.00
2018-07-25T21:08:37.361Z,21.90
2018-07-25T21:11:07.679Z,21.90
2018-07-25T21:13:38.093Z,21.90
2018-07-25T21:16:08.502Z,21.90
2018-07-25T21:18:38.803Z,21.80
2018-07-25T21:21:09.378Z,21.80
2018-07-25T21:23:39.772Z,21.90
2018-07-25T21:28:40.036Z,21.80
2018-07-25T21:31:10.291Z,21.80
2018-07-25T21:33:40.614Z,21.80
2018-07-25T21:36:10.991Z,21.80
2018-07-25T21:38:41.368Z,21.80
2018-07-25T21:41:11.653Z,21.80
2018-07-25T21:43:41.929Z,21.80
2018-07-25T21:46:12.261Z,21.80
2018-07-25T21:48:42.523Z,21.80
2018-07-25T21:51:12.790Z,21.70
2018-07-25T21:53:43.085Z,21.70
2018-07-25T21:58:43.420Z,21.70
2018-07-25T22:01:17.648Z,21.60
2018-07-25T22:03:48.039Z,21.60
2018-07-25T22:06:19.143Z,21.60
2018-07-25T22:11:18.869Z,21.60
2018-07-25T22:13:54.109Z,21.60
2018-07-25T22:16:25.148Z,21.60
2018-07-25T22:18:55.565Z,21.60
2018-07-25T22:21:25.647Z,21.60
2018-07-25T22:23:55.731Z,21.60
2018-07-25T22:26:25.778Z,21.60
2018-07-25T22:28:56.832Z,21.60
2018-07-25T22:31:26.994Z,21.50
2018-07-25T22:33:57.017Z,21.50
2018-07-25T22:36:27.938Z,21.40
2018-07-25T22:38:57.994Z,21.40
2018-07-25T22:41:28.137Z,21.40
2018-07-25T22:46:27.935Z,21.40
2018-07-25T22:48:58.031Z,21.40
2018-07-25T22:51:28.251Z,21.30
2018-07-25T22:53:58.388Z,21.30
2018-07-25T22:56:28.506Z,21.30
2018-07-25T22:58:59.111Z,21.20
2018-07-25T23:01:29.253Z,21.20
2018-07-25T23:03:59.365Z,21.10
2018-07-25T23:06:29.538Z,21.20
2018-07-25T23:08:59.665Z,21.10
2018-07-25T23:11:29.787Z,21.10
2018-07-25T23:13:59.895Z,21.10
2018-07-25T23:16:30.056Z,21.10
2018-07-25T23:19:00.121Z,21.10
2018-07-25T23:21:30.288Z,21.10
2018-07-25T23:24:00.397Z,21.10
2018-07-25T23:26:30.563Z,21.00
2018-07-25T23:29:00.616Z,21.00
2018-07-25T23:31:30.722Z,21.00
2018-07-25T23:34:00.784Z,20.90
2018-07-25T23:36:30.930Z,20.90
2018-07-25T23:41:30.743Z,20.90
2018-07-25T23:44:00.836Z,20.90
2018-07-25T23:46:31.003Z,20.90
2018-07-25T23:49:01.053Z,20.90
2018-07-25T23:51:31.252Z,20.90
2018-07-25T23:54:01.412Z,20.80
2018-07-25T23:56:31.616Z,20.70
2018-07-25T23:59:01.731Z,20.70
